Time;durP1;ratioP1;P1;durP2;ratioP2;P2;SDS_P1;SDS_P2;PMS_P1;PMS_P2;Temp;Humidity;BMP_temperature;BMP_pressure;BME280_temperature;BME280_humidity;BME280_pressure;Samples;Min_cycle;Max_cycle;Signal;HPM_P1;HPM_P2
2021/10/14 00:01:40;;;;;;;13.57;7.40;;;;;;;;;;5050776;28;20025;-76
2021/10/14 00:04:06;;;;;;;10.90;6.97;;;;;;;;;;5050886;28;20111;-75
2021/10/14 00:06:31;;;;;;;11.38;7.70;;;;;;;;;;5050507;28;20029;-78
2021/10/14 00:08:56;;;;;;;15.25;8.23;;;;;;;;;;5050517;28;20040;-77
2021/10/14 00:11:23;;;;;;;13.60;7.93;;;;;;;;;;5051163;28;20025;-76
2021/10/14 00:13:49;;;;;;;13.55;9.07;;;;;;;;;;5033155;28;20128;-77
2021/10/14 00:16:14;;;;;;;11.75;6.97;;;;;;;;;;5050586;28;20172;-75
2021/10/14 00:18:41;;;;;;;16.48;10.30;;;;;;;;;;5050849;28;20604;-75
2021/10/14 00:21:07;;;;;;;12.45;6.93;;;;;;;;;;5050676;28;20040;-77
2021/10/14 00:23:32;;;;;;;12.18;7.63;;;;;;;;;;5050561;28;20037;-75
2021/10/14 00:25:58;;;;;;;10.60;7.40;;;;;;;;;;5050588;28;20119;-77
2021/10/14 00:28:24;;;;;;;12.82;9.02;;;;;;;;;;5050933;28;20033;-76
2021/10/14 00:30:49;;;;;;;16.83;11.63;;;;;;;;;;5050662;28;20390;-75
2021/10/14 00:33:15;;;;;;;14.50;8.55;;;;;;;;;;5050250;28;20140;-75
2021/10/14 00:35:40;;;;;;;14.20;8.45;;;;;;;;;;5050364;28;20036;-76
2021/10/14 00:38:05;;;;;;;12.13;7.43;;;;;;;;;;5050566;28;20033;-75
2021/10/14 00:40:32;;;;;;;11.45;7.03;;;;;;;;;;5050677;28;20094;-76
2021/10/14 00:42:57;;;;;;;12.48;7.50;;;;;;;;;;5053703;28;20083;-75
2021/10/14 00:45:23;;;;;;;14.32;7.82;;;;;;;;;;5054055;28;20485;-75
2021/10/14 00:47:48;;;;;;;9.90;6.05;;;;;;;;;;5054073;28;20028;-76
2021/10/14 00:50:14;;;;;;;16.67;9.32;;;;;;;;;;5053683;28;20048;-76
2021/10/14 00:52:41;;;;;;;13.85;7.95;;;;;;;;;;5053772;28;20060;-75
2021/10/14 00:55:08;;;;;;;18.13;8.90;;;;;;;;;;5053956;28;20044;-76
2021/10/14 00:57:33;;;;;;;14.85;8.38;;;;;;;;;;5053715;28;20037;-77
2021/10/14 00:59:59;;;;;;;14.82;8.05;;;;;;;;;;5053717;28;20513;-77
2021/10/14 01:02:25;;;;;;;15.02;8.50;;;;;;;;;;5053957;28;20119;-75
2021/10/14 01:04:54;;;;;;;12.23;7.18;;;;;;;;;;5053605;28;20072;-74
2021/10/14 01:07:19;;;;;;;15.27;9.80;;;;;;;;;;5035639;28;20032;-75
2021/10/14 01:09:45;;;;;;;11.35;6.50;;;;;;;;;;5053358;28;20091;-74
2021/10/14 01:12:10;;;;;;;16.85;8.27;;;;;;;;;;5053486;28;20036;-75
2021/10/14 01:14:36;;;;;;;11.50;7.38;;;;;;;;;;5053202;28;20086;-75
2021/10/14 01:17:01;;;;;;;15.90;7.90;;;;;;;;;;5053149;28;20452;-77
2021/10/14 01:19:27;;;;;;;14.88;9.02;;;;;;;;;;5053289;28;20148;-76
2021/10/14 01:21:52;;;;;;;17.42;9.50;;;;;;;;;;5053408;28;20095;-75
2021/10/14 01:24:19;;;;;;;15.13;8.98;;;;;;;;;;5053099;28;20115;-76
2021/10/14 01:26:44;;;;;;;16.38;8.40;;;;;;;;;;5053120;28;20080;-76
2021/10/14 01:29:11;;;;;;;13.75;7.10;;;;;;;;;;5053102;28;20473;-76
2021/10/14 01:31:36;;;;;;;15.38;8.18;;;;;;;;;;5052974;28;20040;-75
2021/10/14 01:34:03;;;;;;;15.13;7.85;;;;;;;;;;5052936;28;20043;-76
2021/10/14 01:36:28;;;;;;;10.85;6.18;;;;;;;;;;5052861;28;20084;-75
2021/10/14 01:38:53;;;;;;;17.55;9.10;;;;;;;;;;5053252;28;20025;-76
2021/10/14 01:41:19;;;;;;;14.85;8.70;;;;;;;;;;5053006;28;20035;-76
2021/10/14 01:43:44;;;;;;;16.65;10.45;;;;;;;;;;5052871;28;20409;-77
2021/10/14 01:46:10;;;;;;;17.65;8.95;;;;;;;;;;5052753;28;20041;-76
2021/10/14 01:48:36;;;;;;;14.68;9.43;;;;;;;;;;5052660;28;20033;-77
2021/10/14 01:51:03;;;;;;;13.95;8.63;;;;;;;;;;5052902;28;20057;-78
2021/10/14 01:53:28;;;;;;;12.35;7.90;;;;;;;;;;5034136;28;20558;-76
2021/10/14 01:55:54;;;;;;;11.18;6.03;;;;;;;;;;5052917;28;20124;-77
2021/10/14 01:58:20;;;;;;;13.60;7.38;;;;;;;;;;5052699;28;20063;-76
2021/10/14 02:00:48;;;;;;;16.30;9.55;;;;;;;;;;5052373;28;20060;-77
2021/10/14 02:03:14;;;;;;;11.95;7.63;;;;;;;;;;5034655;28;20060;-78
2021/10/14 02:05:40;;;;;;;17.08;10.80;;;;;;;;;;5052803;28;20479;-77
2021/10/14 02:08:05;;;;;;;14.98;7.97;;;;;;;;;;5052446;28;20509;-78
2021/10/14 02:10:31;;;;;;;18.73;8.93;;;;;;;;;;5052320;28;20036;-78
2021/10/14 02:12:56;;;;;;;17.70;9.02;;;;;;;;;;5052296;28;20125;-77
2021/10/14 02:15:22;;;;;;;11.93;7.57;;;;;;;;;;5052526;28;20037;-77
2021/10/14 02:17:48;;;;;;;15.65;10.18;;;;;;;;;;5034423;28;20029;-78
2021/10/14 02:20:13;;;;;;;16.10;6.95;;;;;;;;;;5052224;28;20056;-77
2021/10/14 02:22:38;;;;;;;14.82;7.85;;;;;;;;;;5052222;28;20056;-77
2021/10/14 02:25:06;;;;;;;15.88;9.20;;;;;;;;;;5052020;28;20107;-75
2021/10/14 02:27:31;;;;;;;9.07;7.13;;;;;;;;;;5053355;28;20033;-77
2021/10/14 02:29:57;;;;;;;13.82;8.02;;;;;;;;;;5052346;28;20394;-78
2021/10/14 02:32:22;;;;;;;14.50;8.98;;;;;;;;;;5052225;28;20063;-78
2021/10/14 02:34:48;;;;;;;9.50;6.35;;;;;;;;;;5051889;28;20486;-78
2021/10/14 02:37:13;;;;;;;7.55;5.13;;;;;;;;;;5052107;28;20048;-79
2021/10/14 02:39:39;;;;;;;13.75;7.53;;;;;;;;;;5051821;28;20033;-78
2021/10/14 02:42:04;;;;;;;15.60;7.65;;;;;;;;;;5051919;28;20033;-78
2021/10/14 02:44:29;;;;;;;13.05;6.93;;;;;;;;;;5034605;28;20029;-77
2021/10/14 02:46:55;;;;;;;15.20;8.88;;;;;;;;;;5062382;28;20071;-77
2021/10/14 02:49:21;;;;;;;13.98;8.35;;;;;;;;;;5069653;28;20041;-78
2021/10/14 02:51:46;;;;;;;14.55;8.32;;;;;;;;;;5051281;28;20056;-76
2021/10/14 02:54:12;;;;;;;13.07;7.25;;;;;;;;;;5058847;28;20072;-75
2021/10/14 02:56:37;;;;;;;13.88;8.02;;;;;;;;;;5051915;28;20506;-76
2021/10/14 02:59:02;;;;;;;14.60;8.48;;;;;;;;;;5034021;28;20028;-77
2021/10/14 03:01:28;;;;;;;15.13;8.65;;;;;;;;;;5051969;28;20036;-76
2021/10/14 03:03:53;;;;;;;15.52;9.15;;;;;;;;;;5051055;28;20419;-76
2021/10/14 03:06:19;;;;;;;15.63;10.45;;;;;;;;;;5051681;28;20041;-77
2021/10/14 03:08:44;;;;;;;13.95;7.80;;;;;;;;;;5051851;28;20039;-75
2021/10/14 03:11:09;;;;;;;16.10;8.50;;;;;;;;;;5051925;28;20186;-76
2021/10/14 03:13:36;;;;;;;14.68;7.38;;;;;;;;;;5051534;28;20437;-76
2021/10/14 03:16:04;;;;;;;16.15;7.53;;;;;;;;;;5051532;28;20391;-76
2021/10/14 03:18:30;;;;;;;29.60;9.40;;;;;;;;;;5051908;28;20037;-76
2021/10/14 03:20:55;;;;;;;10.68;6.25;;;;;;;;;;5051517;28;20033;-79
2021/10/14 03:23:21;;;;;;;12.30;6.72;;;;;;;;;;5050880;28;20036;-78
2021/10/14 03:25:46;;;;;;;15.75;6.20;;;;;;;;;;5051102;28;20035;-81
2021/10/14 03:28:11;;;;;;;15.20;9.88;;;;;;;;;;5051354;28;20409;-78
2021/10/14 03:30:37;;;;;;;15.73;7.43;;;;;;;;;;5050962;28;20078;-78
2021/10/14 03:33:03;;;;;;;12.85;5.75;;;;;;;;;;5050742;28;20029;-76
2021/10/14 03:35:28;;;;;;;15.60;10.88;;;;;;;;;;5032894;28;20059;-77
2021/10/14 03:37:54;;;;;;;15.75;7.45;;;;;;;;;;5051147;28;20028;-79
2021/10/14 03:40:19;;;;;;;12.95;7.88;;;;;;;;;;5051198;28;20515;-78
2021/10/14 03:42:44;;;;;;;14.93;7.38;;;;;;;;;;5051039;28;20029;-83
2021/10/14 03:45:10;;;;;;;15.50;8.48;;;;;;;;;;5051284;28;20479;-78
2021/10/14 03:47:35;;;;;;;16.95;7.63;;;;;;;;;;5051059;28;20444;-78
2021/10/14 03:50:01;;;;;;;23.02;7.20;;;;;;;;;;5051013;28;20043;-77
2021/10/14 03:52:26;;;;;;;13.88;6.40;;;;;;;;;;5050772;28;20071;-77
2021/10/14 03:54:51;;;;;;;21.13;6.80;;;;;;;;;;5050330;28;20052;-79
2021/10/14 03:57:17;;;;;;;20.40;8.77;;;;;;;;;;5050883;28;20037;-80
2021/10/14 03:59:42;;;;;;;14.20;7.05;;;;;;;;;;5032647;28;20504;-77
2021/10/14 04:02:07;;;;;;;16.45;7.30;;;;;;;;;;5050615;28;20029;-78
2021/10/14 04:04:33;;;;;;;23.52;8.35;;;;;;;;;;5050533;28;20033;-78
2021/10/14 04:06:58;;;;;;;17.42;7.32;;;;;;;;;;5050618;28;20509;-78
2021/10/14 04:09:24;;;;;;;21.88;7.35;;;;;;;;;;5050789;28;20402;-79
2021/10/14 04:11:49;;;;;;;23.08;7.28;;;;;;;;;;5050581;28;20116;-79
2021/10/14 04:14:14;;;;;;;22.88;6.65;;;;;;;;;;5050656;28;20402;-78
2021/10/14 04:16:40;;;;;;;29.52;7.80;;;;;;;;;;5053429;28;20036;-80
2021/10/14 04:19:07;;;;;;;28.75;8.73;;;;;;;;;;5054058;28;20037;-78
2021/10/14 04:21:34;;;;;;;21.83;6.28;;;;;;;;;;5036296;28;20037;-79
2021/10/14 04:23:59;;;;;;;27.13;7.75;;;;;;;;;;5054137;28;20118;-78
2021/10/14 04:26:25;;;;;;;43.50;7.00;;;;;;;;;;5054337;28;20116;-78
2021/10/14 04:28:50;;;;;;;32.63;7.78;;;;;;;;;;5054202;28;20436;-78
2021/10/14 04:31:15;;;;;;;30.33;7.03;;;;;;;;;;5053822;28;20037;-79
2021/10/14 04:33:41;;;;;;;34.70;8.10;;;;;;;;;;5053570;28;20039;-78
2021/10/14 04:36:06;;;;;;;25.45;6.25;;;;;;;;;;5054058;28;20544;-79
2021/10/14 04:38:32;;;;;;;41.92;7.30;;;;;;;;;;5054153;28;20032;-77
2021/10/14 04:40:57;;;;;;;32.10;7.15;;;;;;;;;;5035810;28;20133;-79
2021/10/14 04:43:23;;;;;;;40.10;6.53;;;;;;;;;;5054059;28;20064;-78
2021/10/14 04:45:51;;;;;;;41.80;7.03;;;;;;;;;;5053746;28;20033;-78
2021/10/14 04:48:17;;;;;;;39.97;6.82;;;;;;;;;;5035890;28;20032;-78
2021/10/14 04:50:42;;;;;;;26.67;7.80;;;;;;;;;;5053696;28;20383;-77
2021/10/14 04:53:08;;;;;;;34.75;7.47;;;;;;;;;;5053543;28;20072;-77
2021/10/14 04:55:33;;;;;;;36.88;6.15;;;;;;;;;;5053986;28;20041;-77
2021/10/14 04:58:00;;;;;;;28.98;7.22;;;;;;;;;;5053642;28;20041;-77
2021/10/14 05:00:25;;;;;;;23.08;6.10;;;;;;;;;;5053306;28;20040;-79
2021/10/14 05:02:51;;;;;;;38.53;7.65;;;;;;;;;;5035444;28;20036;-76
2021/10/14 05:05:16;;;;;;;33.88;7.10;;;;;;;;;;5052785;28;20040;-79
2021/10/14 05:07:42;;;;;;;21.70;6.18;;;;;;;;;;5053220;28;20040;-79
2021/10/14 05:10:07;;;;;;;30.33;7.30;;;;;;;;;;5053248;28;20059;-78
2021/10/14 05:12:35;;;;;;;29.45;7.13;;;;;;;;;;5052791;28;20079;-79
2021/10/14 05:15:04;;;;;;;46.70;7.45;;;;;;;;;;5053098;28;20641;-78
2021/10/14 05:17:31;;;;;;;28.80;8.27;;;;;;;;;;5053286;28;20047;-80
2021/10/14 05:19:56;;;;;;;33.88;7.57;;;;;;;;;;5052934;28;20078;-79
2021/10/14 05:22:22;;;;;;;35.72;8.07;;;;;;;;;;5035226;28;20131;-80
2021/10/14 05:24:47;;;;;;;33.22;7.85;;;;;;;;;;5052459;28;20112;-78
2021/10/14 05:27:12;;;;;;;34.92;9.32;;;;;;;;;;5052069;28;20422;-79
2021/10/14 05:29:38;;;;;;;40.72;9.57;;;;;;;;;;5034272;28;20041;-78
2021/10/14 05:32:03;;;;;;;33.70;7.95;;;;;;;;;;5034686;28;20114;-78
2021/10/14 05:34:30;;;;;;;34.85;9.82;;;;;;;;;;5052905;28;20124;-78
2021/10/14 05:36:55;;;;;;;53.47;9.13;;;;;;;;;;5052898;28;20068;-79
2021/10/14 05:39:21;;;;;;;22.70;6.65;;;;;;;;;;5052816;28;20060;-78
2021/10/14 05:41:46;;;;;;;35.63;7.68;;;;;;;;;;5052427;28;20115;-78
2021/10/14 05:44:11;;;;;;;33.55;8.23;;;;;;;;;;5052611;28;20040;-78
2021/10/14 05:46:40;;;;;;;25.08;8.20;;;;;;;;;;5052952;28;20082;-79
2021/10/14 05:49:06;;;;;;;21.95;8.77;;;;;;;;;;5052606;28;20041;-78
2021/10/14 05:51:32;;;;;;;22.25;8.75;;;;;;;;;;5053070;28;20037;-79
2021/10/14 05:53:57;;;;;;;28.60;7.57;;;;;;;;;;5051896;28;20057;-78
2021/10/14 05:56:24;;;;;;;28.58;8.57;;;;;;;;;;5052549;28;20516;-77
2021/10/14 05:58:50;;;;;;;31.58;9.38;;;;;;;;;;5052354;28;20029;-77
2021/10/14 06:01:16;;;;;;;24.52;7.97;;;;;;;;;;5052418;28;20407;-79
2021/10/14 06:03:42;;;;;;;33.20;9.20;;;;;;;;;;5052278;28;20107;-78
2021/10/14 06:06:07;;;;;;;29.30;9.15;;;;;;;;;;5052073;28;20132;-79
2021/10/14 06:08:33;;;;;;;26.15;9.68;;;;;;;;;;5052552;28;20075;-78
2021/10/14 06:10:58;;;;;;;35.10;8.20;;;;;;;;;;5034513;28;20132;-80
2021/10/14 06:13:24;;;;;;;31.52;8.00;;;;;;;;;;5052341;28;20029;-78
2021/10/14 06:15:49;;;;;;;36.90;8.07;;;;;;;;;;5051822;28;20033;-77
2021/10/14 06:18:14;;;;;;;29.38;8.45;;;;;;;;;;5052193;28;20029;-79
2021/10/14 06:20:40;;;;;;;39.30;9.02;;;;;;;;;;5051619;28;20139;-79
2021/10/14 06:23:06;;;;;;;27.42;8.48;;;;;;;;;;5051866;28;20531;-78
2021/10/14 06:25:32;;;;;;;28.90;8.45;;;;;;;;;;5033232;28;20187;-78
2021/10/14 06:27:57;;;;;;;27.45;7.65;;;;;;;;;;5051367;28;20033;-78
2021/10/14 06:30:23;;;;;;;28.70;9.60;;;;;;;;;;5051521;28;20601;-77
2021/10/14 06:32:48;;;;;;;33.03;10.35;;;;;;;;;;5051755;28;20029;-78
2021/10/14 06:35:13;;;;;;;24.38;9.18;;;;;;;;;;5051470;28;20151;-77
2021/10/14 06:37:39;;;;;;;25.40;8.90;;;;;;;;;;5051536;28;20029;-78
2021/10/14 06:40:05;;;;;;;31.40;8.95;;;;;;;;;;5050616;28;20037;-79
2021/10/14 06:42:30;;;;;;;28.70;8.77;;;;;;;;;;5051694;28;20494;-79
2021/10/14 06:44:56;;;;;;;27.02;9.07;;;;;;;;;;5051539;28;20059;-78
2021/10/14 06:47:21;;;;;;;22.63;8.30;;;;;;;;;;5051518;28;20043;-79
2021/10/14 06:49:48;;;;;;;25.35;10.48;;;;;;;;;;5051529;28;20025;-78
2021/10/14 06:52:15;;;;;;;14.75;8.38;;;;;;;;;;5033986;28;20047;-77
2021/10/14 06:54:41;;;;;;;22.63;8.40;;;;;;;;;;5033296;28;20032;-78
2021/10/14 06:57:07;;;;;;;16.48;9.18;;;;;;;;;;5033920;28;20037;-78
2021/10/14 06:59:33;;;;;;;24.27;8.95;;;;;;;;;;5051545;28;20039;-79
2021/10/14 07:01:59;;;;;;;20.65;10.52;;;;;;;;;;5051521;28;20120;-80
2021/10/14 07:04:25;;;;;;;13.90;7.93;;;;;;;;;;5051345;28;20140;-78
2021/10/14 07:06:51;;;;;;;18.30;7.38;;;;;;;;;;5051607;28;20037;-78
2021/10/14 07:09:16;;;;;;;19.45;8.70;;;;;;;;;;5051459;28;20078;-79
2021/10/14 07:11:52;;;;;;;20.35;9.57;;;;;;;;;;5051146;28;20028;-79
2021/10/14 07:14:20;;;;;;;17.58;9.55;;;;;;;;;;5033467;28;20122;-80
2021/10/14 07:16:45;;;;;;;27.02;9.77;;;;;;;;;;5051073;28;20041;-77
2021/10/14 07:19:11;;;;;;;20.95;9.82;;;;;;;;;;5051438;28;20025;-79
2021/10/14 07:21:36;;;;;;;28.90;12.05;;;;;;;;;;5051015;28;20052;-78
2021/10/14 07:24:02;;;;;;;25.65;11.98;;;;;;;;;;5050902;28;20025;-77
2021/10/14 07:26:27;;;;;;;23.75;10.02;;;;;;;;;;5051620;28;20162;-77
2021/10/14 07:28:52;;;;;;;27.60;12.20;;;;;;;;;;5050833;28;20059;-78
2021/10/14 07:31:18;;;;;;;29.50;13.82;;;;;;;;;;5051077;28;20032;-79
2021/10/14 07:33:43;;;;;;;21.85;11.75;;;;;;;;;;5050653;28;20451;-78
2021/10/14 07:36:09;;;;;;;21.73;11.65;;;;;;;;;;5057919;22;20065;-80
2021/10/14 07:38:36;;;;;;;22.20;12.10;;;;;;;;;;5050984;28;20498;-79
2021/10/14 07:41:02;;;;;;;29.02;12.55;;;;;;;;;;5051288;28;20044;-79
2021/10/14 07:43:27;;;;;;;26.15;12.23;;;;;;;;;;5051243;28;20037;-78
2021/10/14 07:45:52;;;;;;;28.30;12.48;;;;;;;;;;5051076;28;20033;-78
2021/10/14 07:48:19;;;;;;;22.40;11.65;;;;;;;;;;5047688;28;20796;-81
2021/10/14 07:50:45;;;;;;;23.65;11.02;;;;;;;;;;5052391;28;20147;-80
2021/10/14 07:53:15;;;;;;;25.67;12.23;;;;;;;;;;5055182;28;20113;-79
2021/10/14 07:55:41;;;;;;;23.05;12.00;;;;;;;;;;5054822;28;20064;-78
2021/10/14 07:58:07;;;;;;;29.33;13.20;;;;;;;;;;5055365;28;20476;-78
2021/10/14 08:00:33;;;;;;;27.40;13.70;;;;;;;;;;5071596;28;20405;-79
2021/10/14 08:02:58;;;;;;;22.30;11.40;;;;;;;;;;5059638;28;20040;-79
2021/10/14 08:05:25;;;;;;;25.55;12.63;;;;;;;;;;5077747;28;20096;-77
2021/10/14 08:07:50;;;;;;;24.17;12.07;;;;;;;;;;5060844;28;20044;-78
2021/10/14 08:10:16;;;;;;;24.80;11.65;;;;;;;;;;5056089;28;20029;-77
2021/10/14 08:12:43;;;;;;;21.83;12.07;;;;;;;;;;5054746;28;20080;-77
2021/10/14 08:15:09;;;;;;;24.98;11.43;;;;;;;;;;5037056;28;20082;-77
2021/10/14 08:17:34;;;;;;;22.58;12.68;;;;;;;;;;5054876;28;20072;-78
2021/10/14 08:20:00;;;;;;;22.45;12.45;;;;;;;;;;5054156;28;20045;-77
2021/10/14 08:22:25;;;;;;;24.80;12.38;;;;;;;;;;5054337;28;20033;-77
2021/10/14 08:24:51;;;;;;;24.85;13.98;;;;;;;;;;5054417;28;20486;-76
2021/10/14 08:27:16;;;;;;;25.00;12.65;;;;;;;;;;5036180;28;20033;-76
2021/10/14 08:29:42;;;;;;;21.48;9.98;;;;;;;;;;5054557;28;20398;-77
2021/10/14 08:32:07;;;;;;;14.27;8.43;;;;;;;;;;5054553;28;20135;-77
2021/10/14 08:34:33;;;;;;;22.30;12.10;;;;;;;;;;5053942;28;20029;-78
2021/10/14 08:37:00;;;;;;;21.48;13.18;;;;;;;;;;5054194;28;20041;-78
2021/10/14 08:39:26;;;;;;;22.90;10.25;;;;;;;;;;5054003;28;20036;-76
2021/10/14 08:41:51;;;;;;;23.98;11.60;;;;;;;;;;5053912;28;20064;-79
2021/10/14 08:44:25;;;;;;;22.77;13.60;;;;;;;;;;5054352;28;20067;-78
2021/10/14 08:46:51;;;;;;;27.83;15.38;;;;;;;;;;5053893;28;20057;-77
2021/10/14 08:49:16;;;;;;;24.45;13.25;;;;;;;;;;5053084;28;20127;-77
2021/10/14 08:51:43;;;;;;;25.40;13.38;;;;;;;;;;5053634;28;20033;-77
2021/10/14 08:54:08;;;;;;;24.55;12.55;;;;;;;;;;5036262;28;20036;-77
2021/10/14 08:56:34;;;;;;;23.10;12.77;;;;;;;;;;5053196;28;20045;-77
2021/10/14 08:59:02;;;;;;;25.52;13.10;;;;;;;;;;5053889;28;20041;-79
2021/10/14 09:01:27;;;;;;;24.08;13.40;;;;;;;;;;5053053;28;20025;-77
2021/10/14 09:03:54;;;;;;;24.52;13.30;;;;;;;;;;5035074;28;20644;-77
2021/10/14 09:06:20;;;;;;;32.92;15.07;;;;;;;;;;5053597;28;20474;-77
2021/10/14 09:08:48;;;;;;;23.33;12.95;;;;;;;;;;5035100;28;20581;-77
2021/10/14 09:11:17;;;;;;;21.45;13.00;;;;;;;;;;5033537;28;20034;-80
2021/10/14 09:13:57;;;;;;;22.63;12.98;;;;;;;;;;5033779;28;20041;-78
2021/10/14 09:16:32;;;;;;;19.85;10.98;;;;;;;;;;5033907;28;20056;-79
2021/10/14 09:19:13;;;;;;;23.40;11.23;;;;;;;;;;5033050;28;20041;-77
2021/10/14 09:21:40;;;;;;;21.20;11.48;;;;;;;;;;5033720;28;20036;-78
2021/10/14 09:24:28;;;;;;;22.13;11.70;;;;;;;;;;5016108;28;20053;-78
2021/10/14 09:26:54;;;;;;;19.42;11.77;;;;;;;;;;5033364;28;20116;-77
2021/10/14 09:29:22;;;;;;;17.90;10.85;;;;;;;;;;5033513;28;20033;-78
2021/10/14 09:31:55;;;;;;;15.80;9.60;;;;;;;;;;5033290;28;20057;-76
2021/10/14 09:34:43;;;;;;;18.38;10.02;;;;;;;;;;5015451;28;20034;-77
2021/10/14 09:37:15;;;;;;;19.08;10.60;;;;;;;;;;5052825;28;20207;-77
2021/10/14 09:39:59;;;;;;;19.58;11.95;;;;;;;;;;5034732;28;20032;-78
2021/10/14 09:42:39;;;;;;;19.75;11.25;;;;;;;;;;5035286;28;20033;-80
2021/10/14 09:45:25;;;;;;;17.13;9.48;;;;;;;;;;5053025;28;20075;-77
2021/10/14 09:48:02;;;;;;;13.63;9.05;;;;;;;;;;5052666;28;20029;-78
2021/10/14 09:50:28;;;;;;;17.33;10.23;;;;;;;;;;5052453;28;20037;-76
2021/10/14 09:52:54;;;;;;;18.50;10.38;;;;;;;;;;5035201;28;20058;-78
2021/10/14 09:55:20;;;;;;;18.85;10.60;;;;;;;;;;5034706;28;20029;-77
2021/10/14 09:57:45;;;;;;;16.67;10.50;;;;;;;;;;5052281;28;20544;-77
2021/10/14 10:00:11;;;;;;;17.20;10.93;;;;;;;;;;5052626;28;20123;-77
2021/10/14 10:02:38;;;;;;;14.80;9.82;;;;;;;;;;5052418;28;20490;-77
2021/10/14 10:05:05;;;;;;;17.85;10.88;;;;;;;;;;5034497;28;20402;-78
2021/10/14 10:07:31;;;;;;;16.98;9.90;;;;;;;;;;5052399;28;20037;-78
2021/10/14 10:09:56;;;;;;;15.43;10.32;;;;;;;;;;5052233;28;20033;-77
2021/10/14 10:12:22;;;;;;;15.15;10.80;;;;;;;;;;5052634;28;20060;-80
2021/10/14 10:14:51;;;;;;;13.88;9.13;;;;;;;;;;5052384;28;20498;-78
2021/10/14 10:17:34;;;;;;;17.58;11.75;;;;;;;;;;5034204;28;20402;-78
2021/10/14 10:20:00;;;;;;;17.23;11.63;;;;;;;;;;5052313;28;20040;-79
2021/10/14 10:22:35;;;;;;;17.70;12.88;;;;;;;;;;5052016;28;20426;-79
2021/10/14 10:25:22;;;;;;;19.25;13.02;;;;;;;;;;5051919;28;20095;-77
2021/10/14 10:27:48;;;;;;;17.60;11.70;;;;;;;;;;5052413;28;20048;-78
2021/10/14 10:30:27;;;;;;;19.67;13.82;;;;;;;;;;5052266;28;20037;-78
2021/10/14 10:32:53;;;;;;;17.70;11.45;;;;;;;;;;5033822;28;20040;-78
2021/10/14 10:35:54;;;;;;;16.90;12.25;;;;;;;;;;5052035;28;20057;-77
2021/10/14 10:38:28;;;;;;;14.93;8.45;;;;;;;;;;4984498;28;20037;-77
2021/10/14 10:40:56;;;;;;;15.52;9.82;;;;;;;;;;5035962;28;20047;-79
2021/10/14 10:43:30;;;;;;;13.10;9.68;;;;;;;;;;5034486;28;20036;-78
2021/10/14 10:46:03;;;;;;;11.60;8.13;;;;;;;;;;5050792;28;20172;-77
2021/10/14 10:48:36;;;;;;;14.65;10.63;;;;;;;;;;5050763;28;20532;-77
2021/10/14 10:51:03;;;;;;;13.55;9.40;;;;;;;;;;5051942;28;20036;-79
2021/10/14 10:53:41;;;;;;;15.15;9.93;;;;;;;;;;5051233;28;20040;-79
2021/10/14 10:56:27;;;;;;;16.67;11.52;;;;;;;;;;5051424;28;20044;-80
2021/10/14 10:58:52;;;;;;;14.77;10.63;;;;;;;;;;5051385;28;20044;-77
2021/10/14 11:01:19;;;;;;;20.77;12.27;;;;;;;;;;5050566;28;20028;-80
2021/10/14 11:04:00;;;;;;;15.80;10.98;;;;;;;;;;5051306;28;20807;-79
2021/10/14 11:06:27;;;;;;;15.82;12.05;;;;;;;;;;5051048;28;20147;-78
2021/10/14 11:08:57;;;;;;;21.40;13.88;;;;;;;;;;5050590;28;20525;-79
2021/10/14 11:11:23;;;;;;;16.30;11.30;;;;;;;;;;5051087;28;20040;-78
2021/10/14 11:13:53;;;;;;;15.65;12.13;;;;;;;;;;5051016;28;20036;-79
2021/10/14 11:16:20;;;;;;;15.88;9.88;;;;;;;;;;5032227;28;20040;-79
2021/10/14 11:18:48;;;;;;;14.65;9.98;;;;;;;;;;5033925;28;20032;-78
2021/10/14 11:21:19;;;;;;;14.18;9.93;;;;;;;;;;5033062;28;20041;-78
2021/10/14 11:23:53;;;;;;;12.57;9.05;;;;;;;;;;5032643;28;20485;-78
2021/10/14 11:26:34;;;;;;;11.55;8.20;;;;;;;;;;5050603;28;20037;-80
2021/10/14 11:29:07;;;;;;;12.23;7.95;;;;;;;;;;5048704;28;20048;-79
2021/10/14 11:31:46;;;;;;;16.60;8.57;;;;;;;;;;5051308;28;20037;-78
2021/10/14 11:34:18;;;;;;;14.85;9.07;;;;;;;;;;5033498;28;20029;-81
2021/10/14 11:36:50;;;;;;;12.35;8.98;;;;;;;;;;5032485;28;20168;-78
2021/10/14 11:39:17;;;;;;;12.50;7.68;;;;;;;;;;5050618;28;20041;-79
2021/10/14 11:41:43;;;;;;;12.57;8.93;;;;;;;;;;5050835;28;20409;-80
2021/10/14 11:44:10;;;;;;;14.50;9.95;;;;;;;;;;5051170;28;20032;-79
2021/10/14 11:46:38;;;;;;;14.57;9.13;;;;;;;;;;5050800;28;20041;-77
2021/10/14 11:49:06;;;;;;;14.05;8.95;;;;;;;;;;5033471;28;20033;-76
2021/10/14 11:51:33;;;;;;;13.60;10.30;;;;;;;;;;5051308;28;20061;-76
2021/10/14 11:54:10;;;;;;;13.10;10.70;;;;;;;;;;5051203;28;20046;-78
2021/10/14 11:56:52;;;;;;;17.35;11.43;;;;;;;;;;5051159;28;20044;-76
2021/10/14 11:59:27;;;;;;;10.85;9.02;;;;;;;;;;5051178;28;20036;-77
2021/10/14 12:01:59;;;;;;;17.35;11.90;;;;;;;;;;5052746;28;20060;-77
2021/10/14 12:04:27;;;;;;;14.73;10.32;;;;;;;;;;5034297;28;20036;-81
2021/10/14 12:06:55;;;;;;;16.27;10.55;;;;;;;;;;5016941;28;20048;-76
2021/10/14 12:09:22;;;;;;;18.88;15.82;;;;;;;;;;5032946;28;20391;-77
2021/10/14 12:11:48;;;;;;;17.60;12.73;;;;;;;;;;5051080;28;20029;-76
2021/10/14 12:14:22;;;;;;;15.80;11.95;;;;;;;;;;5051173;28;20226;-77
2021/10/14 12:17:24;;;;;;;23.35;16.23;;;;;;;;;;5050797;28;20128;-77
2021/10/14 12:19:51;;;;;;;11.70;7.85;;;;;;;;;;5050899;28;20064;-76
2021/10/14 12:22:21;;;;;;;18.50;13.82;;;;;;;;;;5033038;28;20040;-80
2021/10/14 12:24:56;;;;;;;13.55;9.77;;;;;;;;;;5050841;28;20112;-78
2021/10/14 12:27:21;;;;;;;15.88;11.13;;;;;;;;;;5050984;28;20490;-77
2021/10/14 12:29:50;;;;;;;16.52;12.98;;;;;;;;;;5050896;28;20044;-77
2021/10/14 12:32:20;;;;;;;14.57;12.43;;;;;;;;;;5032015;28;20044;-78
2021/10/14 12:34:52;;;;;;;21.05;13.63;;;;;;;;;;5046199;28;20175;-80
2021/10/14 12:37:24;;;;;;;16.92;11.18;;;;;;;;;;5046442;28;20120;-78
2021/10/14 12:40:08;;;;;;;19.88;14.32;;;;;;;;;;5036184;28;20103;-81
2021/10/14 12:48:20;;;;;;;;;;;;;;;;;;5054257;28;20505;-80
2021/10/14 12:50:56;;;;;;;16.00;11.88;;;;;;;;;;5053270;28;19935;-79
2021/10/14 12:53:22;;;;;;;10.65;6.53;;;;;;;;;;5036097;28;20102;-78
2021/10/14 12:56:00;;;;;;;10.80;8.15;;;;;;;;;;5035882;28;20489;-80
2021/10/14 12:58:28;;;;;;;13.20;9.13;;;;;;;;;;5053019;28;20033;-79
2021/10/14 13:01:03;;;;;;;11.48;9.75;;;;;;;;;;5054203;28;20051;-79
2021/10/14 13:03:30;;;;;;;12.25;9.80;;;;;;;;;;5054166;28;20025;-80
2021/10/14 13:05:56;;;;;;;10.63;8.20;;;;;;;;;;5053215;28;20041;-82
2021/10/14 13:08:21;;;;;;;16.23;7.97;;;;;;;;;;5053782;28;20062;-80
2021/10/14 13:10:47;;;;;;;11.07;8.38;;;;;;;;;;5035118;28;20059;-79
2021/10/14 13:13:13;;;;;;;14.20;9.02;;;;;;;;;;5053121;28;20063;-79
2021/10/14 13:15:39;;;;;;;10.35;8.43;;;;;;;;;;5035714;28;20405;-81
2021/10/14 13:18:05;;;;;;;11.38;9.30;;;;;;;;;;5054256;28;20032;-81
2021/10/14 13:20:31;;;;;;;17.55;8.98;;;;;;;;;;5065708;28;20048;-79
2021/10/14 13:22:57;;;;;;;16.38;11.30;;;;;;;;;;5053588;28;20017;-78
2021/10/14 13:25:22;;;;;;;14.77;10.13;;;;;;;;;;5070679;28;20073;-78
2021/10/14 13:27:48;;;;;;;15.43;11.32;;;;;;;;;;5059642;28;20127;-78
2021/10/14 13:30:13;;;;;;;15.07;10.68;;;;;;;;;;5054619;28;20596;-79
2021/10/14 13:32:40;;;;;;;19.52;11.02;;;;;;;;;;5055381;28;20029;-79
2021/10/14 13:35:06;;;;;;;14.60;11.02;;;;;;;;;;5022655;28;20049;-80
2021/10/14 13:37:32;;;;;;;14.20;10.70;;;;;;;;;;5015532;28;20124;-80
2021/10/14 13:39:59;;;;;;;16.35;13.27;;;;;;;;;;5033055;28;20475;-79
2021/10/14 13:42:32;;;;;;;21.00;10.20;;;;;;;;;;5014454;28;20136;-81
2021/10/14 13:45:00;;;;;;;18.08;10.40;;;;;;;;;;5015279;28;20033;-80
2021/10/14 13:47:25;;;;;;;12.80;9.93;;;;;;;;;;5032261;28;20137;-80
2021/10/14 13:49:51;;;;;;;17.42;11.60;;;;;;;;;;5031936;28;20484;-79
2021/10/14 13:52:17;;;;;;;12.13;8.25;;;;;;;;;;5032882;28;20033;-79
2021/10/14 13:54:43;;;;;;;16.98;10.38;;;;;;;;;;4998685;28;20136;-80
2021/10/14 13:57:08;;;;;;;14.35;9.00;;;;;;;;;;5031908;28;20124;-78
2021/10/14 13:59:34;;;;;;;14.52;9.15;;;;;;;;;;5032323;28;20034;-79
2021/10/14 14:01:59;;;;;;;12.30;7.25;;;;;;;;;;5032525;28;20037;-80
2021/10/14 14:04:24;;;;;;;10.73;8.27;;;;;;;;;;5013813;28;20029;-80
2021/10/14 14:06:50;;;;;;;15.13;8.65;;;;;;;;;;5031935;28;20041;-78
2021/10/14 14:09:15;;;;;;;13.07;10.40;;;;;;;;;;5032216;28;20458;-80
2021/10/14 14:11:42;;;;;;;12.45;11.15;;;;;;;;;;5031974;28;20406;-79
2021/10/14 14:14:10;;;;;;;11.00;7.20;;;;;;;;;;5031980;28;20033;-79
2021/10/14 14:16:37;;;;;;;11.98;8.15;;;;;;;;;;5031166;28;20099;-80
2021/10/14 14:19:03;;;;;;;12.68;8.48;;;;;;;;;;5031850;28;20041;-78
2021/10/14 14:21:32;;;;;;;16.40;10.68;;;;;;;;;;5032197;28;20033;-80
2021/10/14 14:24:02;;;;;;;18.67;11.50;;;;;;;;;;5031958;28;20033;-80
2021/10/14 14:26:30;;;;;;;16.60;10.60;;;;;;;;;;5030755;28;20033;-78
2021/10/14 14:28:57;;;;;;;23.63;14.18;;;;;;;;;;5013519;28;20033;-80
2021/10/14 14:31:28;;;;;;;22.88;13.40;;;;;;;;;;4991285;28;20117;-78
2021/10/14 14:33:53;;;;;;;19.23;11.93;;;;;;;;;;5009231;28;20035;-77